sensor_id;sensor_type;location;lat;lon;timestamp;pressure;altitude;pressure_sealevel;temperature;humidity
14594;BME280;7383;52.354;9.756;2022-09-17T00:01:41;-12699.00;;;14.03;100.00
14594;BME280;7383;52.354;9.756;2022-09-17T00:04:09;-12699.44;;;14.05;100.00
14594;BME280;7383;52.354;9.756;2022-09-17T00:06:36;-12699.53;;;14.06;100.00
14594;BME280;7383;52.354;9.756;2022-09-17T00:09:03;-12699.19;;;14.04;100.00
14594;BME280;7383;52.354;9.756;2022-09-17T00:11:34;-12698.81;;;14.02;100.00
14594;BME280;7383;52.354;9.756;2022-09-17T00:14:03;-12699.09;;;14.03;100.00
14594;BME280;7383;52.354;9.756;2022-09-17T00:16:33;-12699.44;;;14.05;100.00
14594;BME280;7383;52.354;9.756;2022-09-17T00:19:03;-12699.53;;;14.06;100.00
14594;BME280;7383;52.354;9.756;2022-09-17T00:21:30;-12698.66;;;14.01;100.00
14594;BME280;7383;52.354;9.756;2022-09-17T00:24:00;-12699.25;;;14.04;100.00
14594;BME280;7383;52.354;9.756;2022-09-17T00:26:28;-12699.34;;;14.05;100.00
14594;BME280;7383;52.354;9.756;2022-09-17T00:28:57;-12698.75;;;14.01;100.00
14594;BME280;7383;52.354;9.756;2022-09-17T00:31:25;-12698.75;;;14.01;100.00
14594;BME280;7383;52.354;9.756;2022-09-17T00:33:52;-12699.00;;;14.03;100.00
14594;BME280;7383;52.354;9.756;2022-09-17T00:36:19;-12699.09;;;14.03;100.00
14594;BME280;7383;52.354;9.756;2022-09-17T00:38:47;-12699.09;;;14.03;100.00
14594;BME280;7383;52.354;9.756;2022-09-17T00:41:35;-12698.81;;;14.02;100.00
14594;BME280;7383;52.354;9.756;2022-09-17T00:47:28;-12698.81;;;14.02;100.00
14594;BME280;7383;52.354;9.756;2022-09-17T00:50:05;-12698.75;;;14.01;100.00
14594;BME280;7383;52.354;9.756;2022-09-17T00:52:49;-12698.22;;;13.98;100.00
14594;BME280;7383;52.354;9.756;2022-09-17T00:55:31;-12697.88;;;13.96;100.00
14594;BME280;7383;52.354;9.756;2022-09-17T00:58:10;-12697.25;;;13.93;100.00
14594;BME280;7383;52.354;9.756;2022-09-17T01:00:38;-12697.00;;;13.91;100.00
14594;BME280;7383;52.354;9.756;2022-09-17T01:03:06;-12697.19;;;13.92;100.00
14594;BME280;7383;52.354;9.756;2022-09-17T01:05:43;-12696.91;;;13.91;100.00
14594;BME280;7383;52.354;9.756;2022-09-17T01:08:19;-12696.41;;;13.88;100.00
14594;BME280;7383;52.354;9.756;2022-09-17T01:11:19;-12697.09;;;13.92;100.00
14594;BME280;7383;52.354;9.756;2022-09-17T01:14:01;-12696.75;;;13.90;100.00
14594;BME280;7383;52.354;9.756;2022-09-17T01:16:36;-12696.22;;;13.87;100.00
14594;BME280;7383;52.354;9.756;2022-09-17T01:19:34;-12696.56;;;13.89;100.00
14594;BME280;7383;52.354;9.756;2022-09-17T01:22:09;-12696.84;;;13.90;100.00
14594;BME280;7383;52.354;9.756;2022-09-17T01:24:49;-12696.75;;;13.90;100.00
14594;BME280;7383;52.354;9.756;2022-09-17T01:27:55;-12696.47;;;13.88;100.00
14594;BME280;7383;52.354;9.756;2022-09-17T01:33:39;-12695.00;;;13.79;100.00
14594;BME280;7383;52.354;9.756;2022-09-17T01:36:31;-12694.47;;;13.76;100.00
14594;BME280;7383;52.354;9.756;2022-09-17T01:39:05;-12694.06;;;13.74;100.00
14594;BME280;7383;52.354;9.756;2022-09-17T01:41:41;-12693.69;;;13.72;100.00
14594;BME280;7383;52.354;9.756;2022-09-17T01:44:16;-12693.78;;;13.72;100.00
14594;BME280;7383;52.354;9.756;2022-09-17T01:46:48;-12693.28;;;13.69;100.00
14594;BME280;7383;52.354;9.756;2022-09-17T01:49:20;-12692.41;;;13.64;100.00
14594;BME280;7383;52.354;9.756;2022-09-17T01:51:50;-12691.44;;;13.59;100.00
14594;BME280;7383;52.354;9.756;2022-09-17T01:54:21;-12691.19;;;13.57;100.00
14594;BME280;7383;52.354;9.756;2022-09-17T01:56:54;-12691.53;;;13.59;100.00
14594;BME280;7383;52.354;9.756;2022-09-17T01:59:25;-12691.28;;;13.58;100.00
14594;BME280;7383;52.354;9.756;2022-09-17T02:01:58;-12691.88;;;13.61;100.00
14594;BME280;7383;52.354;9.756;2022-09-17T02:04:32;-12691.78;;;13.61;100.00
14594;BME280;7383;52.354;9.756;2022-09-17T02:07:03;-12692.06;;;13.62;100.00
14594;BME280;7383;52.354;9.756;2022-09-17T02:09:35;-12691.63;;;13.60;100.00
14594;BME280;7383;52.354;9.756;2022-09-17T02:12:05;-12690.66;;;13.54;100.00
14594;BME280;7383;52.354;9.756;2022-09-17T02:14:37;-12690.13;;;13.51;100.00
14594;BME280;7383;52.354;9.756;2022-09-17T02:17:11;-12690.06;;;13.51;100.00
14594;BME280;7383;52.354;9.756;2022-09-17T02:19:41;-12689.88;;;13.50;100.00
14594;BME280;7383;52.354;9.756;2022-09-17T02:22:15;-12690.66;;;13.54;100.00
14594;BME280;7383;52.354;9.756;2022-09-17T02:24:57;-12691.19;;;13.57;100.00
14594;BME280;7383;52.354;9.756;2022-09-17T02:27:33;-12691.09;;;13.57;100.00
14594;BME280;7383;52.354;9.756;2022-09-17T02:30:03;-12691.53;;;13.59;100.00
14594;BME280;7383;52.354;9.756;2022-09-17T02:32:30;-12691.28;;;13.58;100.00
14594;BME280;7383;52.354;9.756;2022-09-17T02:34:59;-12690.91;;;13.56;100.00
14594;BME280;7383;52.354;9.756;2022-09-17T02:37:26;-12691.09;;;13.57;100.00
14594;BME280;7383;52.354;9.756;2022-09-17T02:39:52;-12690.47;;;13.53;100.00
14594;BME280;7383;52.354;9.756;2022-09-17T02:42:27;-12690.47;;;13.53;100.00
14594;BME280;7383;52.354;9.756;2022-09-17T02:45:00;-12690.31;;;13.52;100.00
14594;BME280;7383;52.354;9.756;2022-09-17T02:51:00;-12690.91;;;13.56;100.00
14594;BME280;7383;52.354;9.756;2022-09-17T02:53:45;-12691.63;;;13.60;100.00
14594;BME280;7383;52.354;9.756;2022-09-17T02:56:18;-12691.09;;;13.57;100.00
14594;BME280;7383;52.354;9.756;2022-09-17T02:58:55;-12690.22;;;13.52;100.00
14594;BME280;7383;52.354;9.756;2022-09-17T03:01:29;-12690.22;;;13.52;100.00
14594;BME280;7383;52.354;9.756;2022-09-17T03:04:06;-12689.78;;;13.49;100.00
14594;BME280;7383;52.354;9.756;2022-09-17T03:07:04;-12689.63;;;13.48;100.00
14594;BME280;7383;52.354;9.756;2022-09-17T03:09:35;-12689.09;;;13.45;100.00
14594;BME280;7383;52.354;9.756;2022-09-17T03:12:11;-12687.88;;;13.38;100.00
14594;BME280;7383;52.354;9.756;2022-09-17T03:14:39;-12687.72;;;13.37;100.00
14594;BME280;7383;52.354;9.756;2022-09-17T03:17:26;-12686.31;;;13.29;100.00
14594;BME280;7383;52.354;9.756;2022-09-17T03:19:55;-12685.28;;;13.23;100.00
14594;BME280;7383;52.354;9.756;2022-09-17T03:22:26;-12685.00;;;13.21;100.00
14594;BME280;7383;52.354;9.756;2022-09-17T03:24:59;-12684.41;;;13.18;100.00
14594;BME280;7383;52.354;9.756;2022-09-17T03:27:26;-12684.91;;;13.21;100.00
14594;BME280;7383;52.354;9.756;2022-09-17T03:29:56;-12684.75;;;13.20;100.00
14594;BME280;7383;52.354;9.756;2022-09-17T03:32:26;-12684.22;;;13.17;100.00
14594;BME280;7383;52.354;9.756;2022-09-17T03:35:22;-12684.13;;;13.16;100.00
14594;BME280;7383;52.354;9.756;2022-09-17T03:37:51;-12683.78;;;13.14;100.00
14594;BME280;7383;52.354;9.756;2022-09-17T03:40:18;-12683.34;;;13.12;100.00
14594;BME280;7383;52.354;9.756;2022-09-17T03:42:58;-12683.19;;;13.11;100.00
14594;BME280;7383;52.354;9.756;2022-09-17T03:45:25;-12683.00;;;13.10;100.00
14594;BME280;7383;52.354;9.756;2022-09-17T03:47:52;-12682.75;;;13.08;100.00
14594;BME280;7383;52.354;9.756;2022-09-17T03:50:24;-12682.13;;;13.05;100.00
14594;BME280;7383;52.354;9.756;2022-09-17T03:52:53;-12682.41;;;13.06;100.00
14594;BME280;7383;52.354;9.756;2022-09-17T03:55:25;-12682.47;;;13.07;100.00
14594;BME280;7383;52.354;9.756;2022-09-17T03:57:51;-12681.09;;;12.99;100.00
14594;BME280;7383;52.354;9.756;2022-09-17T04:00:23;-12680.91;;;12.98;100.00
14594;BME280;7383;52.354;9.756;2022-09-17T04:02:54;-12680.56;;;12.96;100.00
14594;BME280;7383;52.354;9.756;2022-09-17T04:05:31;-12680.91;;;12.98;100.00
14594;BME280;7383;52.354;9.756;2022-09-17T04:08:00;-12680.47;;;12.95;100.00
14594;BME280;7383;52.354;9.756;2022-09-17T04:10:29;-12680.66;;;12.96;100.00
14594;BME280;7383;52.354;9.756;2022-09-17T04:12:56;-12680.22;;;12.94;100.00
14594;BME280;7383;52.354;9.756;2022-09-17T04:15:23;-12679.78;;;12.91;100.00
14594;BME280;7383;52.354;9.756;2022-09-17T04:17:54;-12679.44;;;12.89;100.00
14594;BME280;7383;52.354;9.756;2022-09-17T04:20:21;-12680.03;;;12.93;100.00
14594;BME280;7383;52.354;9.756;2022-09-17T04:22:48;-12680.31;;;12.94;100.00
14594;BME280;7383;52.354;9.756;2022-09-17T04:25:16;-12680.47;;;12.95;100.00
14594;BME280;7383;52.354;9.756;2022-09-17T04:27:42;-12680.56;;;12.96;100.00
14594;BME280;7383;52.354;9.756;2022-09-17T04:30:09;-12680.31;;;12.94;100.00
14594;BME280;7383;52.354;9.756;2022-09-17T04:32:36;-12680.56;;;12.96;100.00
14594;BME280;7383;52.354;9.756;2022-09-17T04:35:03;-12680.75;;;12.97;100.00
14594;BME280;7383;52.354;9.756;2022-09-17T04:37:33;-12680.31;;;12.94;100.00
14594;BME280;7383;52.354;9.756;2022-09-17T04:40:00;-12679.88;;;12.92;100.00
14594;BME280;7383;52.354;9.756;2022-09-17T04:42:28;-12679.97;;;12.92;100.00
14594;BME280;7383;52.354;9.756;2022-09-17T04:44:55;-12680.47;;;12.95;100.00
14594;BME280;7383;52.354;9.756;2022-09-17T04:47:22;-12680.31;;;12.94;100.00
14594;BME280;7383;52.354;9.756;2022-09-17T04:49:48;-12680.75;;;12.97;100.00
14594;BME280;7383;52.354;9.756;2022-09-17T04:52:15;-12680.75;;;12.97;100.00
14594;BME280;7383;52.354;9.756;2022-09-17T04:54:41;-12680.31;;;12.94;100.00
14594;BME280;7383;52.354;9.756;2022-09-17T04:57:08;-12680.47;;;12.95;100.00
14594;BME280;7383;52.354;9.756;2022-09-17T04:59:35;-12680.47;;;12.95;100.00
14594;BME280;7383;52.354;9.756;2022-09-17T05:02:02;-12680.22;;;12.94;100.00
14594;BME280;7383;52.354;9.756;2022-09-17T05:04:28;-12680.31;;;12.94;100.00
14594;BME280;7383;52.354;9.756;2022-09-17T05:06:55;-12679.78;;;12.91;100.00
14594;BME280;7383;52.354;9.756;2022-09-17T05:09:21;-12680.31;;;12.94;100.00
14594;BME280;7383;52.354;9.756;2022-09-17T05:11:55;-12680.66;;;12.96;100.00
14594;BME280;7383;52.354;9.756;2022-09-17T05:14:21;-12680.66;;;12.96;100.00
14594;BME280;7383;52.354;9.756;2022-09-17T05:16:53;-12680.56;;;12.96;100.00
14594;BME280;7383;52.354;9.756;2022-09-17T05:19:19;-12680.84;;;12.97;100.00
14594;BME280;7383;52.354;9.756;2022-09-17T05:21:45;-12681.00;;;12.98;100.00
14594;BME280;7383;52.354;9.756;2022-09-17T05:24:12;-12682.06;;;13.04;100.00
14594;BME280;7383;52.354;9.756;2022-09-17T05:26:39;-12682.13;;;13.05;100.00
14594;BME280;7383;52.354;9.756;2022-09-17T05:29:08;-12681.97;;;13.04;100.00
14594;BME280;7383;52.354;9.756;2022-09-17T05:31:35;-12681.88;;;13.03;100.00
14594;BME280;7383;52.354;9.756;2022-09-17T05:34:03;-12681.78;;;13.03;100.00
14594;BME280;7383;52.354;9.756;2022-09-17T05:36:29;-12681.78;;;13.03;100.00
14594;BME280;7383;52.354;9.756;2022-09-17T05:38:56;-12680.56;;;12.96;100.00
14594;BME280;7383;52.354;9.756;2022-09-17T05:41:22;-12681.09;;;12.99;100.00
14594;BME280;7383;52.354;9.756;2022-09-17T05:43:49;-12680.75;;;12.97;100.00
14594;BME280;7383;52.354;9.756;2022-09-17T05:46:15;-12681.19;;;12.99;100.00
14594;BME280;7383;52.354;9.756;2022-09-17T05:48:43;-12681.63;;;13.02;100.00
14594;BME280;7383;52.354;9.756;2022-09-17T05:51:10;-12681.00;;;12.98;100.00
14594;BME280;7383;52.354;9.756;2022-09-17T05:53:37;-12680.31;;;12.94;100.00
14594;BME280;7383;52.354;9.756;2022-09-17T05:56:04;-12679.88;;;12.92;100.00
14594;BME280;7383;52.354;9.756;2022-09-17T05:58:30;-12679.88;;;12.92;100.00
14594;BME280;7383;52.354;9.756;2022-09-17T06:01:05;-12680.91;;;12.98;100.00
14594;BME280;7383;52.354;9.756;2022-09-17T06:03:40;-12680.75;;;12.97;100.00
14594;BME280;7383;52.354;9.756;2022-09-17T06:06:07;-12679.69;;;12.91;100.00
14594;BME280;7383;52.354;9.756;2022-09-17T06:08:38;-12679.00;;;12.87;100.00
14594;BME280;7383;52.354;9.756;2022-09-17T06:11:05;-12678.22;;;12.82;100.00
14594;BME280;7383;52.354;9.756;2022-09-17T06:13:32;-12678.75;;;12.85;100.00
14594;BME280;7383;52.354;9.756;2022-09-17T06:16:00;-12678.03;;;12.81;100.00
14594;BME280;7383;52.354;9.756;2022-09-17T06:18:32;-12677.97;;;12.80;100.00
14594;BME280;7383;52.354;9.756;2022-09-17T06:21:00;-12678.47;;;12.83;100.00
14594;BME280;7383;52.354;9.756;2022-09-17T06:23:30;-12677.97;;;12.80;100.00
14594;BME280;7383;52.354;9.756;2022-09-17T06:26:02;-12677.69;;;12.79;100.00
14594;BME280;7383;52.354;9.756;2022-09-17T06:28:29;-12677.69;;;12.79;100.00
14594;BME280;7383;52.354;9.756;2022-09-17T06:30:59;-12677.88;;;12.80;100.00
14594;BME280;7383;52.354;9.756;2022-09-17T06:33:34;-12677.19;;;12.76;100.00
14594;BME280;7383;52.354;9.756;2022-09-17T06:36:03;-12676.81;;;12.74;100.00
14594;BME280;7383;52.354;9.756;2022-09-17T06:38:32;-12675.97;;;12.69;100.00
14594;BME280;7383;52.354;9.756;2022-09-17T06:41:01;-12675.97;;;12.69;100.00
14594;BME280;7383;52.354;9.756;2022-09-17T06:43:28;-12675.88;;;12.68;100.00
14594;BME280;7383;52.354;9.756;2022-09-17T06:45:56;-12677.00;;;12.75;100.00
14594;BME280;7383;52.354;9.756;2022-09-17T06:48:24;-12677.34;;;12.77;100.00
14594;BME280;7383;52.354;9.756;2022-09-17T06:50:51;-12677.78;;;12.79;100.00
14594;BME280;7383;52.354;9.756;2022-09-17T06:53:19;-12677.69;;;12.79;100.00
14594;BME280;7383;52.354;9.756;2022-09-17T06:55:45;-12679.25;;;12.88;100.00
14594;BME280;7383;52.354;9.756;2022-09-17T06:58:13;-12681.09;;;12.99;100.00
14594;BME280;7383;52.354;9.756;2022-09-17T07:00:46;-12682.31;;;13.06;100.00
14594;BME280;7383;52.354;9.756;2022-09-17T07:03:15;-12682.06;;;13.04;100.00
14594;BME280;7383;52.354;9.756;2022-09-17T07:05:45;-12682.56;;;13.07;100.00
14594;BME280;7383;52.354;9.756;2022-09-17T07:08:14;-12682.13;;;13.05;100.00
14594;BME280;7383;52.354;9.756;2022-09-17T07:10:49;-12680.75;;;12.97;100.00
14594;BME280;7383;52.354;9.756;2022-09-17T07:13:20;-12680.56;;;12.96;100.00
14594;BME280;7383;52.354;9.756;2022-09-17T07:16:08;-12681.63;;;13.02;100.00
14594;BME280;7383;52.354;9.756;2022-09-17T07:18:53;-12682.41;;;13.06;100.00
14594;BME280;7383;52.354;9.756;2022-09-17T07:21:42;-12683.09;;;13.10;100.00
14594;BME280;7383;52.354;9.756;2022-09-17T07:24:12;-12684.56;;;13.19;100.00
14594;BME280;7383;52.354;9.756;2022-09-17T07:26:38;-12685.78;;;13.26;100.00
14594;BME280;7383;52.354;9.756;2022-09-17T07:29:06;-12687.00;;;13.33;100.00
14594;BME280;7383;52.354;9.756;2022-09-17T07:31:36;-12688.22;;;13.40;100.00
14594;BME280;7383;52.354;9.756;2022-09-17T07:34:03;-12688.50;;;13.42;100.00
14594;BME280;7383;52.354;9.756;2022-09-17T07:36:38;-12688.13;;;13.40;100.00
14594;BME280;7383;52.354;9.756;2022-09-17T07:39:14;-12687.78;;;13.38;100.00
14594;BME280;7383;52.354;9.756;2022-09-17T07:41:42;-12688.13;;;13.40;100.00
14594;BME280;7383;52.354;9.756;2022-09-17T07:44:10;-12687.53;;;13.36;100.00
14594;BME280;7383;52.354;9.756;2022-09-17T07:46:40;-12687.53;;;13.36;100.00
14594;BME280;7383;52.354;9.756;2022-09-17T07:49:10;-12687.34;;;13.35;100.00
14594;BME280;7383;52.354;9.756;2022-09-17T07:51:36;-12687.53;;;13.36;100.00
14594;BME280;7383;52.354;9.756;2022-09-17T07:54:03;-12688.56;;;13.42;100.00
14594;BME280;7383;52.354;9.756;2022-09-17T07:56:31;-12690.06;;;13.51;100.00
14594;BME280;7383;52.354;9.756;2022-09-17T07:59:05;-12690.91;;;13.56;100.00
14594;BME280;7383;52.354;9.756;2022-09-17T08:01:33;-12690.66;;;13.54;100.00
14594;BME280;7383;52.354;9.756;2022-09-17T08:04:01;-12690.66;;;13.54;100.00
14594;BME280;7383;52.354;9.756;2022-09-17T08:06:28;-12691.44;;;13.59;100.00
14594;BME280;7383;52.354;9.756;2022-09-17T08:08:57;-12693.28;;;13.69;100.00
14594;BME280;7383;52.354;9.756;2022-09-17T08:11:28;-12692.91;;;13.67;100.00
14594;BME280;7383;52.354;9.756;2022-09-17T08:13:59;-12692.41;;;13.64;100.00
14594;BME280;7383;52.354;9.756;2022-09-17T08:16:29;-12692.56;;;13.65;100.00
14594;BME280;7383;52.354;9.756;2022-09-17T08:18:57;-12692.31;;;13.64;100.00
14594;BME280;7383;52.354;9.756;2022-09-17T08:21:27;-12692.47;;;13.65;100.00
14594;BME280;7383;52.354;9.756;2022-09-17T08:23:53;-12694.13;;;13.74;100.00
14594;BME280;7383;52.354;9.756;2022-09-17T08:26:29;-12695.44;;;13.82;100.00
14594;BME280;7383;52.354;9.756;2022-09-17T08:29:00;-12696.47;;;13.88;100.00
14594;BME280;7383;52.354;9.756;2022-09-17T08:31:28;-12697.88;;;13.96;100.00
14594;BME280;7383;52.354;9.756;2022-09-17T08:33:59;-12698.66;;;14.01;100.00
14594;BME280;7383;52.354;9.756;2022-09-17T08:36:25;-12699.53;;;14.06;100.00
14594;BME280;7383;52.354;9.756;2022-09-17T08:38:53;-12700.56;;;14.12;100.00
14594;BME280;7383;52.354;9.756;2022-09-17T08:41:24;-12701.53;;;14.17;100.00
14594;BME280;7383;52.354;9.756;2022-09-17T08:44:00;-12702.22;;;14.21;100.00
14594;BME280;7383;52.354;9.756;2022-09-17T08:46:38;-12703.25;;;14.27;100.00
14594;BME280;7383;52.354;9.756;2022-09-17T08:49:27;-12702.81;;;14.25;100.00
14594;BME280;7383;52.354;9.756;2022-09-17T08:52:08;-12702.47;;;14.23;100.00
14594;BME280;7383;52.354;9.756;2022-09-17T08:54:43;-12702.47;;;14.23;100.00
14594;BME280;7383;52.354;9.756;2022-09-17T08:57:19;-12703.34;;;14.28;100.00
14594;BME280;7383;52.354;9.756;2022-09-17T08:59:56;-12706.56;;;14.47;100.00
14594;BME280;7383;52.354;9.756;2022-09-17T09:02:39;-12709.78;;;14.65;100.00
14594;BME280;7383;52.354;9.756;2022-09-17T09:05:21;-12710.22;;;14.68;100.00
14594;BME280;7383;52.354;9.756;2022-09-17T09:07:59;-12711.06;;;14.73;100.00
14594;BME280;7383;52.354;9.756;2022-09-17T09:10:30;-12713.59;;;14.88;100.00
14594;BME280;7383;52.354;9.756;2022-09-17T09:12:59;-12714.38;;;14.92;100.00
14594;BME280;7383;52.354;9.756;2022-09-17T09:15:32;-12713.94;;;14.90;100.00
14594;BME280;7383;52.354;9.756;2022-09-17T09:18:10;-12712.38;;;14.81;100.00
14594;BME280;7383;52.354;9.756;2022-09-17T09:20:47;-12712.47;;;14.81;100.00
14594;BME280;7383;52.354;9.756;2022-09-17T09:23:18;-12712.63;;;14.82;100.00
14594;BME280;7383;52.354;9.756;2022-09-17T09:25:54;-12712.97;;;14.84;100.00
14594;BME280;7383;52.354;9.756;2022-09-17T09:28:40;-12713.69;;;14.88;100.00
14594;BME280;7383;52.354;9.756;2022-09-17T09:31:30;-12713.84;;;14.89;100.00
14594;BME280;7383;52.354;9.756;2022-09-17T09:34:07;-12713.59;;;14.88;100.00
14594;BME280;7383;52.354;9.756;2022-09-17T09:36:37;-12715.25;;;14.97;100.00
14594;BME280;7383;52.354;9.756;2022-09-17T09:39:11;-12717.41;;;15.10;100.00
14594;BME280;7383;52.354;9.756;2022-09-17T09:41:50;-12716.97;;;15.07;100.00
14594;BME280;7383;52.354;9.756;2022-09-17T09:44:25;-12719.06;;;15.19;100.00
14594;BME280;7383;52.354;9.756;2022-09-17T09:47:11;-12720.19;;;15.26;100.00
14594;BME280;7383;52.354;9.756;2022-09-17T09:53:15;-12722.09;;;15.37;100.00
14594;BME280;7383;52.354;9.756;2022-09-17T09:55:59;-12721.31;;;15.33;100.00
14594;BME280;7383;52.354;9.756;2022-09-17T09:58:44;-12721.38;;;15.33;100.00
14594;BME280;7383;52.354;9.756;2022-09-17T10:01:13;-12722.94;;;15.42;100.00
14594;BME280;7383;52.354;9.756;2022-09-17T10:03:41;-12725.97;;;15.60;100.00
14594;BME280;7383;52.354;9.756;2022-09-17T10:06:16;-12727.09;;;15.66;100.00
14594;BME280;7383;52.354;9.756;2022-09-17T10:09:12;-12727.97;;;15.71;100.00
14594;BME280;7383;52.354;9.756;2022-09-17T10:12:02;-12724.16;;;15.49;100.00
14594;BME280;7383;52.354;9.756;2022-09-17T10:14:35;-12722.94;;;15.42;100.00
14594;BME280;7383;52.354;9.756;2022-09-17T10:17:26;-12725.13;;;15.55;100.00
14594;BME280;7383;52.354;9.756;2022-09-17T10:20:24;-12728.94;;;15.77;100.00
14594;BME280;7383;52.354;9.756;2022-09-17T10:22:50;-12728.75;;;15.76;100.00
14594;BME280;7383;52.354;9.756;2022-09-17T10:25:27;-12727.88;;;15.71;100.00
14594;BME280;7383;52.354;9.756;2022-09-17T10:27:55;-12729.38;;;15.80;100.00
14594;BME280;7383;52.354;9.756;2022-09-17T10:30:29;-12731.34;;;15.91;100.00
14594;BME280;7383;52.354;9.756;2022-09-17T10:33:20;-12731.63;;;15.93;100.00
14594;BME280;7383;52.354;9.756;2022-09-17T10:36:11;-12732.91;;;16.00;100.00
14594;BME280;7383;52.354;9.756;2022-09-17T10:38:43;-12735.00;;;16.12;100.00
14594;BME280;7383;52.354;9.756;2022-09-17T10:41:17;-12736.13;;;16.19;100.00
14594;BME280;7383;52.354;9.756;2022-09-17T10:43:55;-12738.09;;;16.31;100.00
14594;BME280;7383;52.354;9.756;2022-09-17T10:46:27;-12739.84;;;16.41;100.00
14594;BME280;7383;52.354;9.756;2022-09-17T10:49:04;-12741.81;;;16.52;100.00
14594;BME280;7383;52.354;9.756;2022-09-17T10:51:51;-12743.56;;;16.62;100.00
14594;BME280;7383;52.354;9.756;2022-09-17T10:58:07;-12744.78;;;16.69;100.00
14594;BME280;7383;52.354;9.756;2022-09-17T11:00:43;-12745.03;;;16.71;100.00
14594;BME280;7383;52.354;9.756;2022-09-17T11:03:39;-12746.94;;;16.82;100.00
14594;BME280;7383;52.354;9.756;2022-09-17T11:06:24;-12749.19;;;16.95;100.00
14594;BME280;7383;52.354;9.756;2022-09-17T11:09:02;-12746.84;;;16.82;100.00
14594;BME280;7383;52.354;9.756;2022-09-17T11:11:50;-12744.84;;;16.70;100.00
14594;BME280;7383;52.354;9.756;2022-09-17T11:14:48;-12741.91;;;16.53;100.00
14594;BME280;7383;52.354;9.756;2022-09-17T11:17:40;-12739.84;;;16.41;100.00
14594;BME280;7383;52.354;9.756;2022-09-17T11:20:28;-12739.16;;;16.37;100.00
14594;BME280;7383;52.354;9.756;2022-09-17T11:26:02;-12741.91;;;16.53;100.00
14594;BME280;7383;52.354;9.756;2022-09-17T11:31:56;-12740.19;;;16.43;100.00
14594;BME280;7383;52.354;9.756;2022-09-17T11:34:34;-12738.44;;;16.33;100.00
14594;BME280;7383;52.354;9.756;2022-09-17T11:37:08;-12737.41;;;16.27;100.00
14594;BME280;7383;52.354;9.756;2022-09-17T11:39:42;-12736.47;;;16.21;100.00
14594;BME280;7383;52.354;9.756;2022-09-17T11:42:13;-12735.84;;;16.17;100.00
14594;BME280;7383;52.354;9.756;2022-09-17T11:47:47;-12737.84;;;16.29;100.00
14594;BME280;7383;52.354;9.756;2022-09-17T11:50:39;-12737.84;;;16.29;100.00
14594;BME280;7383;52.354;9.756;2022-09-17T11:53:16;-12738.03;;;16.30;100.00
14594;BME280;7383;52.354;9.756;2022-09-17T11:56:16;-12737.50;;;16.27;100.00
14594;BME280;7383;52.354;9.756;2022-09-17T11:58:53;-12738.44;;;16.33;100.00
14594;BME280;7383;52.354;9.756;2022-09-17T12:01:26;-12739.66;;;16.40;100.00
14594;BME280;7383;52.354;9.756;2022-09-17T12:04:00;-12740.69;;;16.46;100.00
14594;BME280;7383;52.354;9.756;2022-09-17T12:06:41;-12743.47;;;16.62;100.00
14594;BME280;7383;52.354;9.756;2022-09-17T12:09:16;-12747.38;;;16.85;100.00
14594;BME280;7383;52.354;9.756;2022-09-17T12:12:14;-12748.84;;;16.93;100.00
14594;BME280;7383;52.354;9.756;2022-09-17T12:14:45;-12747.97;;;16.88;100.00
14594;BME280;7383;52.354;9.756;2022-09-17T12:20:22;-12742.59;;;16.57;100.00
14594;BME280;7383;52.354;9.756;2022-09-17T12:22:50;-12739.66;;;16.40;100.00
14594;BME280;7383;52.354;9.756;2022-09-17T12:25:21;-12737.50;;;16.27;100.00
14594;BME280;7383;52.354;9.756;2022-09-17T12:27:52;-12734.31;;;16.08;100.00
14594;BME280;7383;52.354;9.756;2022-09-17T12:30:23;-12732.03;;;15.95;100.00
14594;BME280;7383;52.354;9.756;2022-09-17T12:33:00;-12732.13;;;15.96;100.00
14594;BME280;7383;52.354;9.756;2022-09-17T12:35:43;-12731.88;;;15.94;100.00
14594;BME280;7383;52.354;9.756;2022-09-17T12:38:21;-12731.34;;;15.91;100.00
14594;BME280;7383;52.354;9.756;2022-09-17T12:40:55;-12730.66;;;15.87;100.00
14594;BME280;7383;52.354;9.756;2022-09-17T12:43:37;-12730.22;;;15.85;100.00
14594;BME280;7383;52.354;9.756;2022-09-17T12:46:19;-12729.63;;;15.81;100.00
14594;BME280;7383;52.354;9.756;2022-09-17T12:49:13;-12727.81;;;15.70;100.00
14594;BME280;7383;52.354;9.756;2022-09-17T12:51:55;-12722.88;;;15.42;100.00
14594;BME280;7383;52.354;9.756;2022-09-17T12:54:38;-12720.97;;;15.31;100.00
14594;BME280;7383;52.354;9.756;2022-09-17T12:57:15;-12716.09;;;15.02;100.00
14594;BME280;7383;52.354;9.756;2022-09-17T12:59:50;-12712.47;;;14.81;100.00
14594;BME280;7383;52.354;9.756;2022-09-17T13:02:26;-12709.84;;;14.66;100.00
14594;BME280;7383;52.354;9.756;2022-09-17T13:05:15;-12709.59;;;14.64;100.00
14594;BME280;7383;52.354;9.756;2022-09-17T13:07:56;-12710.03;;;14.67;100.00
14594;BME280;7383;52.354;9.756;2022-09-17T13:13:30;-12711.94;;;14.78;100.00
14594;BME280;7383;52.354;9.756;2022-09-17T13:16:06;-12713.25;;;14.86;100.00
14594;BME280;7383;52.354;9.756;2022-09-17T13:18:42;-12713.75;;;14.89;100.00
14594;BME280;7383;52.354;9.756;2022-09-17T13:21:13;-12715.94;;;15.01;100.00
14594;BME280;7383;52.354;9.756;2022-09-17T13:23:50;-12716.44;;;15.04;100.00
14594;BME280;7383;52.354;9.756;2022-09-17T13:26:21;-12716.28;;;15.03;100.00
14594;BME280;7383;52.354;9.756;2022-09-17T13:29:02;-12714.63;;;14.94;100.00
14594;BME280;7383;52.354;9.756;2022-09-17T13:31:52;-12712.72;;;14.83;100.00
14594;BME280;7383;52.354;9.756;2022-09-17T13:34:27;-12712.13;;;14.79;100.00
14594;BME280;7383;52.354;9.756;2022-09-17T13:36:55;-12711.59;;;14.76;100.00
14594;BME280;7383;52.354;9.756;2022-09-17T13:39:38;-12711.16;;;14.73;100.00
14594;BME280;7383;52.354;9.756;2022-09-17T13:42:18;-12710.38;;;14.69;100.00
14594;BME280;7383;52.354;9.756;2022-09-17T13:45:06;-12709.25;;;14.62;100.00
14594;BME280;7383;52.354;9.756;2022-09-17T13:47:38;-12707.34;;;14.51;100.00
14594;BME280;7383;52.354;9.756;2022-09-17T13:50:08;-12703.50;;;14.29;100.00
14594;BME280;7383;52.354;9.756;2022-09-17T13:52:41;-12700.47;;;14.11;100.00
14594;BME280;7383;52.354;9.756;2022-09-17T13:55:30;-12699.69;;;14.07;100.00
14594;BME280;7383;52.354;9.756;2022-09-17T13:57:58;-12700.31;;;14.10;100.00